Time;durP1;ratioP1;P1;durP2;ratioP2;P2;SDS_P1;SDS_P2;PMS_P1;PMS_P2;Temp;Humidity;BMP_temperature;BMP_pressure;BME280_temperature;BME280_humidity;BME280_pressure;Samples;Min_cycle;Max_cycle;Signal;HPM_P1;HPM_P2
2021/01/10 05:01:50;;;;;;;32.63;21.23;;;;;;;-1.67;86.48;99730.18;1776705;79;22703;-67
2021/01/10 05:04:18;;;;;;;32.88;21.15;;;;;;;-1.74;86.51;99725.83;1749674;82;21004;-67
2021/01/10 05:06:46;;;;;;;26.05;17.98;;;;;;;-1.75;86.59;99731.34;1749607;81;21192;-67
2021/01/10 05:09:14;;;;;;;26.82;17.57;;;;;;;-1.74;86.83;99736.89;1749560;82;21099;-67
2021/01/10 05:11:42;;;;;;;29.12;19.42;;;;;;;-1.68;86.95;99738.66;1720439;82;20949;-67
2021/01/10 05:14:10;;;;;;;27.85;19.55;;;;;;;-1.62;86.93;99742.57;1749597;82;21587;-66
2021/01/10 05:16:38;;;;;;;25.40;18.50;;;;;;;-1.54;86.77;99749.02;1749635;82;20977;-66
2021/01/10 05:19:06;;;;;;;24.82;17.90;;;;;;;-1.48;86.72;99748.67;1669723;82;21392;-67
2021/01/10 05:21:33;;;;;;;26.95;17.82;;;;;;;-1.42;86.68;99746.20;1749635;82;21084;-67
2021/01/10 05:24:04;;;;;;;24.92;17.62;;;;;;;-1.37;86.65;99746.23;1749626;81;21064;-67
2021/01/10 05:26:36;;;;;;;23.42;17.30;;;;;;;-1.31;86.64;99745.45;1749572;82;21068;-67
2021/01/10 05:29:09;;;;;;;23.50;16.35;;;;;;;-1.26;86.55;99751.05;1749412;81;21488;-67
2021/01/10 05:31:42;;;;;;;22.95;15.93;;;;;;;-1.20;86.43;99754.91;1749632;82;21374;-68
2021/01/10 05:34:16;;;;;;;25.77;18.60;;;;;;;-1.15;86.24;99756.23;1749547;82;21102;-67
2021/01/10 05:36:43;;;;;;;20.70;16.12;;;;;;;-1.14;86.20;99763.05;1749599;82;21093;-68
2021/01/10 05:39:28;;;;;;;22.67;16.87;;;;;;;-1.10;86.21;99763.11;1749554;82;21119;-67
2021/01/10 05:42:05;;;;;;;22.35;17.32;;;;;;;-1.04;86.06;99763.60;1749734;80;21622;-67
2021/01/10 05:44:44;;;;;;;22.05;16.73;;;;;;;-0.98;85.98;99772.57;1749630;82;21212;-66
2021/01/10 05:47:14;;;;;;;20.37;15.53;;;;;;;-0.92;85.94;99773.06;1737369;82;21496;-66
2021/01/10 05:49:50;;;;;;;20.80;15.98;;;;;;;-0.85;85.90;99776.97;1719764;83;21155;-67
2021/01/10 05:52:18;;;;;;;24.05;16.77;;;;;;;-0.74;85.82;99779.19;1719717;83;21835;-66
2021/01/10 05:54:55;;;;;;;24.35;17.60;;;;;;;-0.62;85.67;99783.98;1719761;83;21162;-66
2021/01/10 05:57:27;;;;;;;27.05;19.65;;;;;;;-0.51;85.47;99783.64;1719797;82;21219;-67
2021/01/10 05:59:56;;;;;;;23.73;17.42;;;;;;;-0.46;85.02;99787.95;1718103;83;21313;-66
2021/01/10 06:02:35;;;;;;;27.40;18.77;;;;;;;-0.43;84.80;99788.40;1707002;84;21076;-66
2021/01/10 06:05:18;;;;;;;26.73;18.32;;;;;;;-0.40;84.70;99794.81;1707003;83;21052;-66
2021/01/10 06:07:47;;;;;;;30.25;20.92;;;;;;;-0.34;84.61;99803.78;1707102;84;21484;-67
2021/01/10 06:10:27;;;;;;;29.60;21.07;;;;;;;-0.29;84.30;99802.55;1706775;82;21224;-67
2021/01/10 06:13:03;;;;;;;29.02;19.65;;;;;;;-0.26;84.21;99806.41;1706483;84;21101;-66
2021/01/10 06:15:32;;;;;;;27.77;20.05;;;;;;;-0.22;83.88;99807.73;1706493;83;21077;-67
2021/01/10 06:18:03;;;;;;;27.45;20.12;;;;;;;-0.21;83.52;99821.36;1706534;84;21555;-67
2021/01/10 06:20:34;;;;;;;27.48;20.48;;;;;;;-0.23;83.36;99815.38;1706487;84;21088;-66
2021/01/10 06:23:04;;;;;;;29.00;19.50;;;;;;;-0.29;83.29;99812.35;1706605;84;21375;-66
2021/01/10 06:25:39;;;;;;;27.55;19.30;;;;;;;-0.31;83.01;99817.02;1706389;82;21101;-66
2021/01/10 06:28:11;;;;;;;29.63;21.30;;;;;;;-0.33;82.98;99813.59;1706129;83;21096;-66
2021/01/10 06:30:58;;;;;;;32.13;21.95;;;;;;;-0.31;83.10;99815.31;1706434;84;21160;-67
2021/01/10 06:33:33;;;;;;;30.30;23.07;;;;;;;-0.25;82.88;99817.92;1706469;84;21152;-66
2021/01/10 06:36:03;;;;;;;34.70;24.57;;;;;;;-0.25;82.58;99818.34;1706549;84;22339;-67
2021/01/10 06:38:33;;;;;;;35.63;24.20;;;;;;;-0.29;82.43;99822.58;1706484;84;21504;-66
2021/01/10 06:41:34;;;;;;;37.00;23.57;;;;;;;-0.30;82.39;99822.56;1706426;84;21080;-66
2021/01/10 06:44:05;;;;;;;41.23;25.35;;;;;;;-0.33;82.15;99818.70;1706458;84;21064;-66
2021/01/10 06:46:32;;;;;;;42.48;24.37;;;;;;;-0.44;82.19;99827.15;1706461;82;21060;-66
2021/01/10 06:49:01;;;;;;;45.05;26.73;;;;;;;-0.48;82.37;99830.94;1706426;82;21390;-66
2021/01/10 06:51:29;;;;;;;34.40;23.35;;;;;;;-0.47;82.70;99835.20;1706505;83;21592;-66
2021/01/10 06:53:58;;;;;;;31.40;21.27;;;;;;;-0.43;82.61;99833.12;1706467;84;21120;-66
2021/01/10 06:56:25;;;;;;;28.90;21.20;;;;;;;-0.41;82.43;99835.27;1686738;84;21191;-67
2021/01/10 06:59:07;;;;;;;30.60;20.45;;;;;;;-0.44;82.37;99832.68;1706426;83;21064;-66
2021/01/10 07:01:53;;;;;;;25.52;18.75;;;;;;;-0.50;82.25;99837.30;1706426;83;21207;-66
2021/01/10 07:04:25;;;;;;;27.87;18.77;;;;;;;-0.56;82.35;99841.50;1706339;82;21073;-66
2021/01/10 07:06:53;;;;;;;23.27;18.05;;;;;;;-0.62;82.64;99838.48;1706435;84;21513;-66
2021/01/10 07:09:21;;;;;;;26.80;19.17;;;;;;;-0.62;82.76;99841.05;1706504;84;21076;-67
2021/01/10 07:11:51;;;;;;;25.95;19.62;;;;;;;-0.63;82.84;99842.30;1706430;84;21496;-66
2021/01/10 07:14:25;;;;;;;28.90;19.75;;;;;;;-0.60;83.06;99845.72;1706408;84;21916;-67
2021/01/10 07:17:04;;;;;;;27.93;19.57;;;;;;;-0.51;83.33;99842.41;1706334;83;21108;-67
2021/01/10 07:19:43;;;;;;;27.77;22.87;;;;;;;-0.31;83.56;99844.70;1829370;76;38118;-66
2021/01/10 07:22:31;;;;;;;27.40;19.65;;;;;;;-0.09;83.63;99840.19;1815575;78;21650;-66
2021/01/10 07:25:21;;;;;;;26.30;20.00;;;;;;;0.14;83.16;99840.35;1815417;79;21325;-67
2021/01/10 07:27:50;;;;;;;40.17;26.20;;;;;;;0.34;82.95;99840.47;1807308;79;21499;-65
2021/01/10 07:30:24;;;;;;;53.48;30.85;;;;;;;0.49;82.54;99839.27;1815413;79;21055;-66
2021/01/10 07:32:52;;;;;;;101.80;57.83;;;;;;;0.63;82.49;99835.48;1815424;77;21030;-67
2021/01/10 07:35:19;;;;;;;104.30;60.98;;;;;;;0.83;82.16;99836.83;1815527;79;21063;-67
2021/01/10 07:37:48;;;;;;;90.32;57.48;;;;;;;1.00;81.65;99842.86;1815326;77;21370;-67
2021/01/10 07:40:24;;;;;;;74.37;48.50;;;;;;;1.17;81.39;99839.09;1784496;79;21078;-67
2021/01/10 07:43:01;;;;;;;69.85;46.42;;;;;;;1.36;80.93;99835.28;1815469;79;20991;-67
2021/01/10 07:45:38;;;;;;;74.58;49.50;;;;;;;1.47;80.19;99827.59;1815345;79;21082;-66
2021/01/10 07:48:06;;;;;;;65.47;40.88;;;;;;;1.50;79.68;99838.27;1790851;79;21046;-67
2021/01/10 07:50:34;;;;;;;50.17;32.38;;;;;;;1.51;79.63;99831.88;1783279;79;21510;-66
2021/01/10 07:53:01;;;;;;;38.08;25.50;;;;;;;1.55;79.62;99837.86;1783284;80;21177;-67
2021/01/10 07:55:30;;;;;;;29.85;21.57;;;;;;;1.57;79.40;99839.58;1783264;80;21050;-67
2021/01/10 07:58:07;;;;;;;30.43;20.62;;;;;;;1.62;79.19;99842.97;1783320;79;21050;-67
2021/01/10 08:00:38;;;;;;;26.97;19.40;;;;;;;1.66;79.26;99843.41;1783253;79;21129;-67
2021/01/10 08:03:08;;;;;;;24.55;18.27;;;;;;;1.78;79.03;99845.56;1780823;79;21357;-67
2021/01/10 08:05:45;;;;;;;27.90;19.95;;;;;;;1.82;78.83;99848.53;1783233;79;21056;-67
2021/01/10 08:08:16;;;;;;;37.38;23.77;;;;;;;1.85;78.62;99849.39;1776931;80;21134;-68
2021/01/10 08:10:53;;;;;;;46.88;29.30;;;;;;;1.88;78.36;99847.25;1783264;80;21554;-67
2021/01/10 08:13:30;;;;;;;59.00;30.72;;;;;;;1.92;78.09;99845.98;1783276;79;21161;-67
2021/01/10 08:16:14;;;;;;;47.65;25.37;;;;;;;2.00;77.77;99847.23;1783369;79;22276;-66
2021/01/10 08:18:45;;;;;;;46.15;25.88;;;;;;;2.05;77.60;99843.81;1790221;78;21109;-67
2021/01/10 08:21:15;;;;;;;47.62;26.68;;;;;;;2.11;77.39;99849.37;1798165;78;21573;-67
2021/01/10 08:23:44;;;;;;;42.58;24.90;;;;;;;2.19;77.30;99850.66;1798189;79;21173;-68
2021/01/10 08:26:18;;;;;;;40.03;23.98;;;;;;;2.24;77.07;99857.90;1798020;78;21156;-67
2021/01/10 08:28:51;;;;;;;40.03;22.52;;;;;;;2.28;76.88;99850.20;1798017;79;21361;-67
2021/01/10 08:31:21;;;;;;;44.93;22.90;;;;;;;2.30;76.57;99846.34;1797415;79;21058;-67
2021/01/10 08:34:07;;;;;;;39.27;22.65;;;;;;;2.31;76.42;99842.92;1797510;79;21056;-67
2021/01/10 08:36:36;;;;;;;38.58;21.73;;;;;;;2.29;76.21;99843.35;1797741;79;21137;-66
2021/01/10 08:39:12;;;;;;;40.45;24.12;;;;;;;2.28;76.20;99845.48;1797613;78;21125;-67
2021/01/10 08:41:42;;;;;;;38.78;22.93;;;;;;;2.25;76.15;99839.08;1797492;78;21364;-68
2021/01/10 08:44:16;;;;;;;41.35;23.70;;;;;;;2.20;76.18;99835.23;1797404;79;21081;-67
2021/01/10 08:46:51;;;;;;;31.10;21.05;;;;;;;2.17;76.37;99837.83;1797391;78;21137;-67
2021/01/10 08:49:23;;;;;;;30.23;20.23;;;;;;;2.20;76.35;99845.95;1797447;79;21054;-68
2021/01/10 08:51:52;;;;;;;41.45;20.95;;;;;;;2.18;76.10;99836.97;1797593;79;21496;-67
2021/01/10 08:54:24;;;;;;;29.55;19.32;;;;;;;2.16;76.15;99841.25;1797413;79;21198;-67
2021/01/10 08:56:53;;;;;;;39.42;22.15;;;;;;;2.13;76.24;99838.69;1797226;79;21204;-67
2021/01/10 08:59:21;;;;;;;26.50;18.70;;;;;;;2.15;76.28;99829.70;1797377;79;21057;-67
2021/01/10 09:01:50;;;;;;;24.45;18.52;;;;;;;2.21;76.14;99824.53;1797499;79;21514;-68
2021/01/10 09:04:18;;;;;;;32.10;20.45;;;;;;;2.20;76.19;99839.54;1797505;79;21487;-66
2021/01/10 09:06:58;;;;;;;27.30;19.00;;;;;;;2.23;76.33;99824.11;1797411;79;21203;-68
2021/01/10 09:09:47;;;;;;;24.75;18.07;;;;;;;2.30;76.17;99826.67;1797304;78;21109;-68
2021/01/10 09:12:26;;;;;;;23.85;18.20;;;;;;;2.30;75.67;99820.68;1797436;78;20993;-67
2021/01/10 09:15:08;;;;;;;31.42;19.60;;;;;;;2.24;75.41;99821.54;1797489;78;21108;-66
2021/01/10 09:17:38;;;;;;;27.07;17.17;;;;;;;2.19;75.73;99822.43;1797471;79;21120;-68
2021/01/10 09:20:11;;;;;;;26.15;17.23;;;;;;;2.26;75.82;99821.54;1797276;79;21438;-67
2021/01/10 09:22:39;;;;;;;32.90;18.32;;;;;;;2.33;75.25;99822.81;1797367;78;21077;-67
2021/01/10 09:25:18;;;;;;;29.72;19.73;;;;;;;2.43;75.06;99822.34;1797388;78;21046;-67
2021/01/10 09:28:15;;;;;;;23.50;17.10;;;;;;;2.57;74.88;99825.74;1797414;79;21050;-67
2021/01/10 09:30:55;;;;;;;40.92;19.05;;;;;;;2.72;74.11;99821.82;1797530;78;21114;-67
2021/01/10 09:33:26;;;;;;;27.58;17.27;;;;;;;2.80;73.62;99820.48;1797405;79;21416;-67
2021/01/10 09:35:54;;;;;;;23.12;16.37;;;;;;;2.89;73.33;99820.89;1797493;79;21112;-68
2021/01/10 09:38:31;;;;;;;21.17;15.75;;;;;;;2.99;73.05;99823.84;1796614;79;21156;-67
2021/01/10 09:41:12;;;;;;;31.02;16.75;;;;;;;3.10;72.72;99817.77;1797378;79;21102;-67
2021/01/10 09:43:46;;;;;;;21.77;15.48;;;;;;;3.19;71.38;99816.88;1797443;79;21062;-69
2021/01/10 09:46:31;;;;;;;24.43;17.40;;;;;;;3.22;71.30;99818.55;1797378;78;21328;-67
2021/01/10 09:49:05;;;;;;;22.87;15.08;;;;;;;3.23;71.11;99819.83;1797299;78;21073;-68
2021/01/10 09:51:42;;;;;;;22.55;15.83;;;;;;;3.25;70.23;99803.97;1797382;78;21116;-67
2021/01/10 09:54:19;;;;;;;28.45;18.60;;;;;;;3.23;69.70;99808.69;1795735;79;21085;-67
2021/01/10 09:56:51;;;;;;;23.38;16.42;;;;;;;3.20;69.97;99812.13;1796706;79;21463;-67
2021/01/10 09:59:42;;;;;;;28.10;16.33;;;;;;;3.21;69.77;99812.98;1797144;78;21333;-66
2021/01/10 10:02:35;;;;;;;22.65;16.42;;;;;;;3.28;69.82;99805.66;1797348;78;21073;-67
2021/01/10 10:05:19;;;;;;;28.70;19.25;;;;;;;3.38;68.86;99808.17;1797351;79;21110;-68
2021/01/10 10:07:50;;;;;;;34.55;19.85;;;;;;;3.46;68.82;99806.82;1797408;78;21065;-68
2021/01/10 10:10:21;;;;;;;24.07;17.62;;;;;;;3.51;68.54;99797.36;1797448;78;21495;-67
2021/01/10 10:13:00;;;;;;;21.37;16.37;;;;;;;3.56;68.45;99795.61;1797473;78;21356;-67
2021/01/10 10:15:45;;;;;;;22.15;15.32;;;;;;;3.66;68.42;99798.52;1797280;78;21069;-66
2021/01/10 10:18:19;;;;;;;21.70;15.95;;;;;;;3.75;67.83;99799.73;1797311;79;21148;-67
2021/01/10 10:20:47;;;;;;;23.80;16.70;;;;;;;3.74;67.00;99797.17;1795821;79;21089;-67
2021/01/10 10:23:15;;;;;;;26.05;16.85;;;;;;;3.69;67.23;99789.92;1797339;78;21097;-67
2021/01/10 10:25:46;;;;;;;24.18;16.80;;;;;;;3.70;67.36;99795.05;1797302;78;21200;-66
2021/01/10 10:28:13;;;;;;;18.50;14.13;;;;;;;3.75;67.11;99802.31;1797271;79;21105;-67
2021/01/10 10:30:42;;;;;;;22.62;15.53;;;;;;;3.79;66.82;99794.14;1797272;79;21089;-67
2021/01/10 10:33:10;;;;;;;19.80;15.10;;;;;;;3.81;66.88;99802.23;1797462;78;21482;-67
2021/01/10 10:35:39;;;;;;;21.17;15.90;;;;;;;3.85;66.76;99794.49;1797326;78;21061;-68
2021/01/10 10:38:09;;;;;;;25.08;16.35;;;;;;;3.89;66.59;99792.31;1797074;79;21371;-67
2021/01/10 10:40:37;;;;;;;23.18;16.57;;;;;;;3.95;66.45;99799.55;1797367;79;21530;-68
2021/01/10 10:43:04;;;;;;;27.45;19.35;;;;;;;4.05;66.22;99793.87;1797271;79;21562;-66
2021/01/10 10:45:32;;;;;;;28.23;18.90;;;;;;;4.15;65.80;99798.07;1797294;79;21057;-68
2021/01/10 10:48:00;;;;;;;25.30;17.07;;;;;;;4.18;65.78;99797.19;1797286;78;21041;-68
2021/01/10 10:50:28;;;;;;;23.70;17.05;;;;;;;4.24;65.60;99799.68;1797269;79;21202;-67
2021/01/10 10:52:55;;;;;;;25.77;15.83;;;;;;;4.30;65.45;99792.75;1797181;78;21569;-68
2021/01/10 10:55:25;;;;;;;19.95;16.23;;;;;;;4.39;65.02;99793.09;1797265;79;21120;-67
2021/01/10 10:57:55;;;;;;;22.42;14.60;;;;;;;4.40;64.37;99784.47;1797338;79;21581;-67
2021/01/10 11:00:24;;;;;;;21.95;14.63;;;;;;;4.29;64.41;99793.63;1796658;79;21121;-68
2021/01/10 11:02:53;;;;;;;26.42;14.60;;;;;;;4.20;63.15;99799.31;1797376;79;21199;-67
2021/01/10 11:05:22;;;;;;;19.20;15.43;;;;;;;4.11;62.15;99804.11;1797315;78;21507;-67
2021/01/10 11:07:51;;;;;;;23.62;15.65;;;;;;;3.99;62.03;99797.38;1797339;79;21168;-65
2021/01/10 11:10:19;;;;;;;21.42;14.55;;;;;;;3.88;62.39;99797.89;1797310;79;21073;-67
2021/01/10 11:12:47;;;;;;;17.17;13.53;;;;;;;3.83;62.85;99800.08;1797305;79;21037;-67
2021/01/10 11:15:14;;;;;;;18.10;13.50;;;;;;;3.72;63.50;99797.62;1797276;78;21336;-67
2021/01/10 11:17:42;;;;;;;18.23;13.78;;;;;;;3.66;64.14;99794.66;1797239;78;21593;-68
2021/01/10 11:20:12;;;;;;;23.98;15.20;;;;;;;3.62;64.57;99803.69;1787022;79;21047;-67
2021/01/10 11:22:41;;;;;;;25.85;16.37;;;;;;;3.57;64.43;99808.89;1778683;80;21173;-67
2021/01/10 11:25:11;;;;;;;27.52;15.05;;;;;;;3.49;64.49;99811.09;1782601;80;21058;-67
2021/01/10 11:27:39;;;;;;;18.30;14.75;;;;;;;3.34;64.98;99803.06;1782520;80;21199;-67
2021/01/10 11:30:08;;;;;;;17.45;14.00;;;;;;;3.25;65.50;99810.39;1782537;79;21490;-68
2021/01/10 11:32:37;;;;;;;21.85;15.50;;;;;;;3.20;65.66;99814.70;1782522;80;21529;-69
2021/01/10 11:35:06;;;;;;;32.42;19.62;;;;;;;3.15;65.86;99815.61;1782558;80;21137;-67
2021/01/10 11:37:33;;;;;;;26.62;18.27;;;;;;;3.08;66.02;99818.64;1782521;80;21070;-67
2021/01/10 11:40:01;;;;;;;28.85;21.30;;;;;;;3.06;66.22;99813.94;1782475;79;21208;-67
2021/01/10 11:42:32;;;;;;;21.57;16.32;;;;;;;3.10;66.11;99823.34;1781212;80;21093;-67
2021/01/10 11:45:01;;;;;;;21.35;15.90;;;;;;;3.15;66.14;99825.89;1782488;79;21074;-67
2021/01/10 11:47:29;;;;;;;20.50;15.43;;;;;;;3.18;66.06;99828.45;1782449;79;21003;-67
2021/01/10 11:49:57;;;;;;;19.45;14.80;;;;;;;3.18;65.97;99829.31;1782512;80;21229;-67
2021/01/10 11:52:26;;;;;;;22.65;14.95;;;;;;;3.17;65.97;99826.74;1782547;80;21598;-67
2021/01/10 11:54:55;;;;;;;22.37;15.08;;;;;;;3.16;65.98;99827.17;1782451;80;21130;-67
2021/01/10 11:57:23;;;;;;;25.08;17.75;;;;;;;3.16;66.22;99834.88;1782474;79;21535;-66
2021/01/10 11:59:52;;;;;;;24.67;17.25;;;;;;;3.16;66.18;99836.60;1782519;79;21129;-67
2021/01/10 12:02:20;;;;;;;23.62;17.55;;;;;;;3.08;66.22;99830.20;1782503;79;21046;-67
2021/01/10 12:04:48;;;;;;;24.92;16.65;;;;;;;3.02;66.61;99837.51;1782558;79;21441;-67
2021/01/10 12:07:18;;;;;;;21.87;17.57;;;;;;;3.00;67.01;99837.09;1782674;79;22016;-67
2021/01/10 12:09:46;;;;;;;38.50;24.27;;;;;;;2.97;67.29;99840.55;1782676;79;21154;-66
2021/01/10 12:12:14;;;;;;;33.45;21.25;;;;;;;2.93;67.67;99838.86;1782628;80;21126;-67
2021/01/10 12:14:42;;;;;;;25.43;19.12;;;;;;;2.88;68.17;99840.58;1782643;79;21109;-67
2021/01/10 12:17:10;;;;;;;35.35;19.37;;;;;;;2.91;68.54;99842.29;1782655;79;21380;-67
2021/01/10 12:19:38;;;;;;;29.05;18.70;;;;;;;2.94;68.51;99850.84;1782423;79;21483;-67
2021/01/10 12:22:06;;;;;;;27.52;16.05;;;;;;;2.99;68.47;99849.11;1782649;80;21047;-67
